Terminal Aerodrome Forecast
Issued by NWS Wilmington, OH

Current Version | Previous Version | Graphics & Text | Print | Product List | Glossary On
Versions: 1 2 3 4 5 6 7 8 9 10 11 12 13 14 15
254
FTUS41 KILN 210542
TAFDAY
TAF
KDAY 210542Z 2106/2206 VRB03KT 1SM BR OVC004
      TEMPO 2106/2110 1/4SM FG OVC002
     FM211000 36008KT 2SM BR OVC006
     FM211400 36006KT P6SM OVC012
     FM211600 36006KT P6SM BKN022
     FM211800 34007KT P6SM BKN200
     FM220000 34010KT P6SM BKN100=

USA.gov is the U.S. government's official web portal to all federal, state and local government web resources and services.